Terminal Aerodrome Forecast
Issued by NWS Sterling, VA

Current Version | Previous Version | Graphics & Text | Print | Product List | Glossary On
Versions: 1 2 3 4 5 6 7 8 9 10 11 12 13 14 15 16 17 18 19 20 21 22 23 24 25 26 27 28
000
FTUS41 KLWX 241400 AAA
TAFDCA
TAF AMD
KDCA 241436Z 2415/2512 34010KT 4SM -DZ OVC008
      TEMPO 2415/2418 2SM -RASN
     FM241900 31011KT P6SM OVC050
     FM242000 29012KT P6SM BKN250
     FM250400 27008KT P6SM SCT250=

USA.gov is the U.S. government's official web portal to all federal, state and local government web resources and services.